sensor_id;sensor_type;location;lat;lon;timestamp;temperature;humidity
59556;DHT22;45374;52.746;6.304;2023-05-28T00:00:09;11.40;99.90
59556;DHT22;45374;52.746;6.304;2023-05-28T00:02:36;11.30;99.90
59556;DHT22;45374;52.746;6.304;2023-05-28T00:05:03;11.30;99.90
59556;DHT22;45374;52.746;6.304;2023-05-28T00:07:29;11.30;99.90
59556;DHT22;45374;52.746;6.304;2023-05-28T00:09:56;11.30;99.90
59556;DHT22;45374;52.746;6.304;2023-05-28T00:12:22;11.30;99.90
59556;DHT22;45374;52.746;6.304;2023-05-28T00:14:47;11.20;99.90
59556;DHT22;45374;52.746;6.304;2023-05-28T00:17:14;11.20;99.90
59556;DHT22;45374;52.746;6.304;2023-05-28T00:19:41;11.20;99.90
59556;DHT22;45374;52.746;6.304;2023-05-28T00:22:07;11.10;99.90
59556;DHT22;45374;52.746;6.304;2023-05-28T00:24:32;11.10;99.90
59556;DHT22;45374;52.746;6.304;2023-05-28T00:26:58;11.10;99.90
59556;DHT22;45374;52.746;6.304;2023-05-28T00:29:23;11.00;99.90
59556;DHT22;45374;52.746;6.304;2023-05-28T00:31:53;11.00;99.90
59556;DHT22;45374;52.746;6.304;2023-05-28T00:34:25;11.00;99.90
59556;DHT22;45374;52.746;6.304;2023-05-28T00:36:51;11.00;99.90
59556;DHT22;45374;52.746;6.304;2023-05-28T00:39:17;10.90;99.90
59556;DHT22;45374;52.746;6.304;2023-05-28T00:41:43;10.90;99.90
59556;DHT22;45374;52.746;6.304;2023-05-28T00:44:10;10.90;99.90
59556;DHT22;45374;52.746;6.304;2023-05-28T00:46:40;10.90;99.90
59556;DHT22;45374;52.746;6.304;2023-05-28T00:49:05;10.80;99.90
59556;DHT22;45374;52.746;6.304;2023-05-28T00:51:31;10.80;99.90
59556;DHT22;45374;52.746;6.304;2023-05-28T00:53:58;10.80;99.90
59556;DHT22;45374;52.746;6.304;2023-05-28T00:56:24;10.70;99.90
59556;DHT22;45374;52.746;6.304;2023-05-28T00:58:50;10.70;99.90
59556;DHT22;45374;52.746;6.304;2023-05-28T01:01:16;10.60;99.90
59556;DHT22;45374;52.746;6.304;2023-05-28T01:03:43;10.60;99.90
59556;DHT22;45374;52.746;6.304;2023-05-28T01:06:11;10.60;99.90
59556;DHT22;45374;52.746;6.304;2023-05-28T01:08:38;10.70;99.90
59556;DHT22;45374;52.746;6.304;2023-05-28T01:11:06;10.70;99.90
59556;DHT22;45374;52.746;6.304;2023-05-28T01:13:33;10.70;99.90
59556;DHT22;45374;52.746;6.304;2023-05-28T01:16:00;10.70;99.90
59556;DHT22;45374;52.746;6.304;2023-05-28T01:18:26;10.70;99.90
59556;DHT22;45374;52.746;6.304;2023-05-28T01:20:53;10.70;99.90
59556;DHT22;45374;52.746;6.304;2023-05-28T01:23:19;10.70;99.90
59556;DHT22;45374;52.746;6.304;2023-05-28T01:25:52;10.70;99.90
59556;DHT22;45374;52.746;6.304;2023-05-28T01:28:20;10.70;99.90
59556;DHT22;45374;52.746;6.304;2023-05-28T01:30:46;10.70;99.90
59556;DHT22;45374;52.746;6.304;2023-05-28T01:33:12;10.60;99.90
59556;DHT22;45374;52.746;6.304;2023-05-28T01:35:39;10.60;99.90
59556;DHT22;45374;52.746;6.304;2023-05-28T01:38:06;10.50;99.90
59556;DHT22;45374;52.746;6.304;2023-05-28T01:40:33;10.50;99.90
59556;DHT22;45374;52.746;6.304;2023-05-28T01:43:01;10.60;99.90
59556;DHT22;45374;52.746;6.304;2023-05-28T01:45:28;10.60;99.90
59556;DHT22;45374;52.746;6.304;2023-05-28T01:47:54;10.60;99.90
59556;DHT22;45374;52.746;6.304;2023-05-28T01:50:20;10.50;99.90
59556;DHT22;45374;52.746;6.304;2023-05-28T01:52:46;10.60;99.90
59556;DHT22;45374;52.746;6.304;2023-05-28T01:55:11;10.60;99.90
59556;DHT22;45374;52.746;6.304;2023-05-28T01:57:38;10.60;99.90
59556;DHT22;45374;52.746;6.304;2023-05-28T02:00:05;10.60;99.90
59556;DHT22;45374;52.746;6.304;2023-05-28T02:02:35;10.60;99.90
59556;DHT22;45374;52.746;6.304;2023-05-28T02:05:01;10.60;99.90
59556;DHT22;45374;52.746;6.304;2023-05-28T02:07:26;10.60;99.90
59556;DHT22;45374;52.746;6.304;2023-05-28T02:09:52;10.60;99.90
59556;DHT22;45374;52.746;6.304;2023-05-28T02:12:17;10.60;99.90
59556;DHT22;45374;52.746;6.304;2023-05-28T02:14:44;10.60;99.90
59556;DHT22;45374;52.746;6.304;2023-05-28T02:17:10;10.60;99.90
59556;DHT22;45374;52.746;6.304;2023-05-28T02:19:36;10.60;99.90
59556;DHT22;45374;52.746;6.304;2023-05-28T02:22:02;10.60;99.90
59556;DHT22;45374;52.746;6.304;2023-05-28T02:24:29;10.60;99.90
59556;DHT22;45374;52.746;6.304;2023-05-28T02:26:55;10.60;99.90
59556;DHT22;45374;52.746;6.304;2023-05-28T02:29:20;10.60;99.90
59556;DHT22;45374;52.746;6.304;2023-05-28T02:31:46;10.60;99.90
59556;DHT22;45374;52.746;6.304;2023-05-28T02:34:11;10.60;99.90
59556;DHT22;45374;52.746;6.304;2023-05-28T02:36:37;10.60;99.90
59556;DHT22;45374;52.746;6.304;2023-05-28T02:39:03;10.60;99.90
59556;DHT22;45374;52.746;6.304;2023-05-28T02:41:29;10.60;99.90
59556;DHT22;45374;52.746;6.304;2023-05-28T02:43:54;10.60;99.90
59556;DHT22;45374;52.746;6.304;2023-05-28T02:46:20;10.50;99.90
59556;DHT22;45374;52.746;6.304;2023-05-28T02:48:45;10.60;99.90
59556;DHT22;45374;52.746;6.304;2023-05-28T02:51:11;10.50;99.90
59556;DHT22;45374;52.746;6.304;2023-05-28T02:53:37;10.50;99.90
59556;DHT22;45374;52.746;6.304;2023-05-28T02:56:03;10.60;99.90
59556;DHT22;45374;52.746;6.304;2023-05-28T02:58:29;10.50;99.90
59556;DHT22;45374;52.746;6.304;2023-05-28T03:00:56;10.60;99.90
59556;DHT22;45374;52.746;6.304;2023-05-28T03:03:21;10.60;99.90
59556;DHT22;45374;52.746;6.304;2023-05-28T03:05:48;10.60;99.90
59556;DHT22;45374;52.746;6.304;2023-05-28T03:08:14;10.60;99.90
59556;DHT22;45374;52.746;6.304;2023-05-28T03:10:39;10.50;99.90
59556;DHT22;45374;52.746;6.304;2023-05-28T03:13:05;10.50;99.90
59556;DHT22;45374;52.746;6.304;2023-05-28T03:15:30;10.50;99.90
59556;DHT22;45374;52.746;6.304;2023-05-28T03:17:56;10.50;99.90
59556;DHT22;45374;52.746;6.304;2023-05-28T03:20:22;10.50;99.90
59556;DHT22;45374;52.746;6.304;2023-05-28T03:22:54;10.50;99.90
59556;DHT22;45374;52.746;6.304;2023-05-28T03:25:20;10.50;99.90
59556;DHT22;45374;52.746;6.304;2023-05-28T03:27:45;10.50;99.90
59556;DHT22;45374;52.746;6.304;2023-05-28T03:30:11;10.50;99.90
59556;DHT22;45374;52.746;6.304;2023-05-28T03:32:37;10.50;99.90
59556;DHT22;45374;52.746;6.304;2023-05-28T03:35:03;10.60;99.90
59556;DHT22;45374;52.746;6.304;2023-05-28T03:37:28;10.60;99.90
59556;DHT22;45374;52.746;6.304;2023-05-28T03:39:54;10.60;99.90
59556;DHT22;45374;52.746;6.304;2023-05-28T03:42:20;10.50;99.90
59556;DHT22;45374;52.746;6.304;2023-05-28T03:44:45;10.60;99.90
59556;DHT22;45374;52.746;6.304;2023-05-28T03:47:11;10.50;99.90
59556;DHT22;45374;52.746;6.304;2023-05-28T03:49:38;10.50;99.90
59556;DHT22;45374;52.746;6.304;2023-05-28T03:52:03;10.50;99.90
59556;DHT22;45374;52.746;6.304;2023-05-28T03:54:29;10.50;99.90
59556;DHT22;45374;52.746;6.304;2023-05-28T03:56:54;10.50;99.90
59556;DHT22;45374;52.746;6.304;2023-05-28T03:59:20;10.50;99.90
59556;DHT22;45374;52.746;6.304;2023-05-28T04:01:46;10.50;99.90
59556;DHT22;45374;52.746;6.304;2023-05-28T04:04:12;10.50;99.90
59556;DHT22;45374;52.746;6.304;2023-05-28T04:06:38;10.40;99.90
59556;DHT22;45374;52.746;6.304;2023-05-28T04:09:03;10.40;99.90
59556;DHT22;45374;52.746;6.304;2023-05-28T04:11:29;10.40;99.90
59556;DHT22;45374;52.746;6.304;2023-05-28T04:13:55;10.40;99.90
59556;DHT22;45374;52.746;6.304;2023-05-28T04:16:22;10.40;99.90
59556;DHT22;45374;52.746;6.304;2023-05-28T04:18:49;10.40;99.90
59556;DHT22;45374;52.746;6.304;2023-05-28T04:21:14;10.40;99.90
59556;DHT22;45374;52.746;6.304;2023-05-28T04:23:40;10.40;99.90
59556;DHT22;45374;52.746;6.304;2023-05-28T04:26:06;10.40;99.90
59556;DHT22;45374;52.746;6.304;2023-05-28T04:28:32;10.40;99.90
59556;DHT22;45374;52.746;6.304;2023-05-28T04:30:58;10.50;99.90
59556;DHT22;45374;52.746;6.304;2023-05-28T04:33:27;10.50;99.90
59556;DHT22;45374;52.746;6.304;2023-05-28T04:35:59;10.40;99.90
59556;DHT22;45374;52.746;6.304;2023-05-28T04:38:26;10.50;99.90
59556;DHT22;45374;52.746;6.304;2023-05-28T04:40:57;10.60;99.90
59556;DHT22;45374;52.746;6.304;2023-05-28T04:43:23;10.70;99.90
59556;DHT22;45374;52.746;6.304;2023-05-28T04:45:49;10.80;99.90
59556;DHT22;45374;52.746;6.304;2023-05-28T04:48:15;10.90;99.90
59556;DHT22;45374;52.746;6.304;2023-05-28T04:50:41;11.00;99.90
59556;DHT22;45374;52.746;6.304;2023-05-28T04:53:07;11.10;99.90
59556;DHT22;45374;52.746;6.304;2023-05-28T04:55:32;11.20;99.90
59556;DHT22;45374;52.746;6.304;2023-05-28T04:57:58;11.30;99.90
59556;DHT22;45374;52.746;6.304;2023-05-28T05:00:23;11.40;99.90
59556;DHT22;45374;52.746;6.304;2023-05-28T05:02:52;11.50;99.90
59556;DHT22;45374;52.746;6.304;2023-05-28T05:05:18;11.60;99.90
59556;DHT22;45374;52.746;6.304;2023-05-28T05:07:45;11.70;99.90
59556;DHT22;45374;52.746;6.304;2023-05-28T05:10:11;11.80;99.90
59556;DHT22;45374;52.746;6.304;2023-05-28T05:12:37;12.00;99.90
59556;DHT22;45374;52.746;6.304;2023-05-28T05:15:04;12.10;99.90
59556;DHT22;45374;52.746;6.304;2023-05-28T05:17:31;12.30;99.90
59556;DHT22;45374;52.746;6.304;2023-05-28T05:19:57;12.30;99.90
59556;DHT22;45374;52.746;6.304;2023-05-28T05:22:23;12.40;99.90
59556;DHT22;45374;52.746;6.304;2023-05-28T05:24:48;12.50;99.90
59556;DHT22;45374;52.746;6.304;2023-05-28T05:27:14;12.70;99.90
59556;DHT22;45374;52.746;6.304;2023-05-28T05:29:40;12.80;99.90
59556;DHT22;45374;52.746;6.304;2023-05-28T05:32:06;12.80;99.90
59556;DHT22;45374;52.746;6.304;2023-05-28T05:34:32;12.90;99.90
59556;DHT22;45374;52.746;6.304;2023-05-28T05:36:58;12.90;99.90
59556;DHT22;45374;52.746;6.304;2023-05-28T05:39:26;12.90;99.90
59556;DHT22;45374;52.746;6.304;2023-05-28T05:41:52;13.10;99.90
59556;DHT22;45374;52.746;6.304;2023-05-28T05:44:18;13.20;99.90
59556;DHT22;45374;52.746;6.304;2023-05-28T05:46:44;13.30;99.90
59556;DHT22;45374;52.746;6.304;2023-05-28T05:49:09;13.50;99.90
59556;DHT22;45374;52.746;6.304;2023-05-28T05:51:35;13.70;99.90
59556;DHT22;45374;52.746;6.304;2023-05-28T05:54:01;13.80;99.90
59556;DHT22;45374;52.746;6.304;2023-05-28T05:56:27;13.90;99.90
59556;DHT22;45374;52.746;6.304;2023-05-28T05:58:52;14.10;99.90
59556;DHT22;45374;52.746;6.304;2023-05-28T06:01:20;14.20;99.90
59556;DHT22;45374;52.746;6.304;2023-05-28T06:03:46;14.20;99.90
59556;DHT22;45374;52.746;6.304;2023-05-28T06:06:11;14.30;99.90
59556;DHT22;45374;52.746;6.304;2023-05-28T06:08:38;14.30;99.90
59556;DHT22;45374;52.746;6.304;2023-05-28T06:11:04;14.40;99.90
59556;DHT22;45374;52.746;6.304;2023-05-28T06:13:30;14.40;99.90
59556;DHT22;45374;52.746;6.304;2023-05-28T06:15:56;14.50;99.90
59556;DHT22;45374;52.746;6.304;2023-05-28T06:18:22;14.50;99.90
59556;DHT22;45374;52.746;6.304;2023-05-28T06:20:49;14.50;99.90
59556;DHT22;45374;52.746;6.304;2023-05-28T06:23:15;14.50;99.90
59556;DHT22;45374;52.746;6.304;2023-05-28T06:25:41;14.50;99.90
59556;DHT22;45374;52.746;6.304;2023-05-28T06:28:09;14.50;99.90
59556;DHT22;45374;52.746;6.304;2023-05-28T06:30:35;14.60;99.90
59556;DHT22;45374;52.746;6.304;2023-05-28T06:33:01;14.50;99.90
59556;DHT22;45374;52.746;6.304;2023-05-28T06:35:26;14.60;99.90
59556;DHT22;45374;52.746;6.304;2023-05-28T06:37:52;14.70;99.90
59556;DHT22;45374;52.746;6.304;2023-05-28T06:40:18;14.80;99.90
59556;DHT22;45374;52.746;6.304;2023-05-28T06:42:44;14.90;99.90
59556;DHT22;45374;52.746;6.304;2023-05-28T06:45:10;15.00;99.90
59556;DHT22;45374;52.746;6.304;2023-05-28T06:47:36;15.20;99.90
59556;DHT22;45374;52.746;6.304;2023-05-28T06:50:01;15.30;99.90
59556;DHT22;45374;52.746;6.304;2023-05-28T06:52:27;15.50;99.90
59556;DHT22;45374;52.746;6.304;2023-05-28T06:54:53;15.60;99.90
59556;DHT22;45374;52.746;6.304;2023-05-28T06:57:18;15.80;99.90
59556;DHT22;45374;52.746;6.304;2023-05-28T06:59:44;15.90;99.90
59556;DHT22;45374;52.746;6.304;2023-05-28T07:02:10;16.10;99.90
59556;DHT22;45374;52.746;6.304;2023-05-28T07:04:36;16.20;99.90
59556;DHT22;45374;52.746;6.304;2023-05-28T07:07:03;16.40;99.90
59556;DHT22;45374;52.746;6.304;2023-05-28T07:09:29;16.50;99.90
59556;DHT22;45374;52.746;6.304;2023-05-28T07:11:55;16.60;99.90
59556;DHT22;45374;52.746;6.304;2023-05-28T07:14:20;16.70;99.90
59556;DHT22;45374;52.746;6.304;2023-05-28T07:16:46;16.70;99.90
59556;DHT22;45374;52.746;6.304;2023-05-28T07:19:12;16.80;99.90
59556;DHT22;45374;52.746;6.304;2023-05-28T07:21:37;16.90;99.90
59556;DHT22;45374;52.746;6.304;2023-05-28T07:24:04;16.90;99.90
59556;DHT22;45374;52.746;6.304;2023-05-28T07:26:31;16.90;99.90
59556;DHT22;45374;52.746;6.304;2023-05-28T07:28:57;17.00;99.90
59556;DHT22;45374;52.746;6.304;2023-05-28T07:31:22;17.00;99.90
59556;DHT22;45374;52.746;6.304;2023-05-28T07:33:49;17.10;99.90
59556;DHT22;45374;52.746;6.304;2023-05-28T07:36:15;17.20;99.90
59556;DHT22;45374;52.746;6.304;2023-05-28T07:38:42;17.20;99.90
59556;DHT22;45374;52.746;6.304;2023-05-28T07:41:07;17.30;99.90
59556;DHT22;45374;52.746;6.304;2023-05-28T07:43:33;17.40;99.90
59556;DHT22;45374;52.746;6.304;2023-05-28T07:45:58;17.50;99.90
59556;DHT22;45374;52.746;6.304;2023-05-28T07:48:24;17.50;99.90
59556;DHT22;45374;52.746;6.304;2023-05-28T07:50:50;17.50;99.90
59556;DHT22;45374;52.746;6.304;2023-05-28T07:53:16;17.60;99.90
59556;DHT22;45374;52.746;6.304;2023-05-28T07:55:43;17.70;99.90
59556;DHT22;45374;52.746;6.304;2023-05-28T07:58:08;17.80;99.90
59556;DHT22;45374;52.746;6.304;2023-05-28T08:00:34;17.80;99.90
59556;DHT22;45374;52.746;6.304;2023-05-28T08:03:02;17.90;99.90
59556;DHT22;45374;52.746;6.304;2023-05-28T08:05:28;18.00;99.90
59556;DHT22;45374;52.746;6.304;2023-05-28T08:07:53;18.10;99.90
59556;DHT22;45374;52.746;6.304;2023-05-28T08:10:19;18.10;99.90
59556;DHT22;45374;52.746;6.304;2023-05-28T08:12:45;18.20;99.90
59556;DHT22;45374;52.746;6.304;2023-05-28T08:15:10;18.30;99.90
59556;DHT22;45374;52.746;6.304;2023-05-28T08:17:36;18.30;99.90
59556;DHT22;45374;52.746;6.304;2023-05-28T08:20:02;18.40;99.90
59556;DHT22;45374;52.746;6.304;2023-05-28T08:22:28;18.50;99.90
59556;DHT22;45374;52.746;6.304;2023-05-28T08:24:54;18.60;99.90
59556;DHT22;45374;52.746;6.304;2023-05-28T08:27:20;18.60;99.90
59556;DHT22;45374;52.746;6.304;2023-05-28T08:29:46;18.70;99.90
59556;DHT22;45374;52.746;6.304;2023-05-28T08:32:12;18.70;99.90
59556;DHT22;45374;52.746;6.304;2023-05-28T08:34:37;18.70;99.90
59556;DHT22;45374;52.746;6.304;2023-05-28T08:37:06;18.90;99.90
59556;DHT22;45374;52.746;6.304;2023-05-28T08:39:33;18.90;99.90
59556;DHT22;45374;52.746;6.304;2023-05-28T08:41:58;19.00;99.90
59556;DHT22;45374;52.746;6.304;2023-05-28T08:44:24;19.10;99.90
59556;DHT22;45374;52.746;6.304;2023-05-28T08:46:50;19.20;99.90
59556;DHT22;45374;52.746;6.304;2023-05-28T08:49:17;19.30;99.90
59556;DHT22;45374;52.746;6.304;2023-05-28T08:51:46;19.40;99.90
59556;DHT22;45374;52.746;6.304;2023-05-28T08:54:14;19.40;99.90
59556;DHT22;45374;52.746;6.304;2023-05-28T08:56:40;19.50;99.90
59556;DHT22;45374;52.746;6.304;2023-05-28T08:59:07;19.60;99.90
59556;DHT22;45374;52.746;6.304;2023-05-28T09:01:36;19.50;99.90
59556;DHT22;45374;52.746;6.304;2023-05-28T09:04:03;19.60;99.90
59556;DHT22;45374;52.746;6.304;2023-05-28T09:06:31;19.70;99.90
59556;DHT22;45374;52.746;6.304;2023-05-28T09:08:57;19.80;99.90
59556;DHT22;45374;52.746;6.304;2023-05-28T09:11:23;19.80;99.90
59556;DHT22;45374;52.746;6.304;2023-05-28T09:13:49;19.90;99.90
59556;DHT22;45374;52.746;6.304;2023-05-28T09:16:24;20.00;99.90
59556;DHT22;45374;52.746;6.304;2023-05-28T09:18:51;20.10;99.90
59556;DHT22;45374;52.746;6.304;2023-05-28T09:21:20;20.10;99.90
59556;DHT22;45374;52.746;6.304;2023-05-28T09:23:50;20.10;99.90
59556;DHT22;45374;52.746;6.304;2023-05-28T09:26:16;20.10;99.90
59556;DHT22;45374;52.746;6.304;2023-05-28T09:28:45;20.10;99.90
59556;DHT22;45374;52.746;6.304;2023-05-28T09:31:10;20.10;99.90
59556;DHT22;45374;52.746;6.304;2023-05-28T09:33:44;20.10;99.90
59556;DHT22;45374;52.746;6.304;2023-05-28T09:36:09;20.20;99.90
59556;DHT22;45374;52.746;6.304;2023-05-28T09:38:40;20.30;99.90
59556;DHT22;45374;52.746;6.304;2023-05-28T09:41:19;20.30;99.90
59556;DHT22;45374;52.746;6.304;2023-05-28T09:43:46;20.40;99.90
59556;DHT22;45374;52.746;6.304;2023-05-28T09:46:12;20.20;99.90
59556;DHT22;45374;52.746;6.304;2023-05-28T09:48:37;20.10;99.90
59556;DHT22;45374;52.746;6.304;2023-05-28T09:51:04;20.10;99.90
59556;DHT22;45374;52.746;6.304;2023-05-28T09:53:31;20.20;99.90
59556;DHT22;45374;52.746;6.304;2023-05-28T09:56:00;20.30;99.90
59556;DHT22;45374;52.746;6.304;2023-05-28T09:58:32;20.40;99.90
59556;DHT22;45374;52.746;6.304;2023-05-28T10:01:03;20.40;99.90
59556;DHT22;45374;52.746;6.304;2023-05-28T10:03:43;20.40;99.90
59556;DHT22;45374;52.746;6.304;2023-05-28T10:06:16;20.40;99.90
59556;DHT22;45374;52.746;6.304;2023-05-28T10:08:49;20.50;99.90
59556;DHT22;45374;52.746;6.304;2023-05-28T10:11:16;20.50;99.90
59556;DHT22;45374;52.746;6.304;2023-05-28T10:13:42;20.50;99.90
59556;DHT22;45374;52.746;6.304;2023-05-28T10:16:08;20.60;99.90
59556;DHT22;45374;52.746;6.304;2023-05-28T10:18:34;20.50;99.90
59556;DHT22;45374;52.746;6.304;2023-05-28T10:21:03;20.40;99.90
59556;DHT22;45374;52.746;6.304;2023-05-28T10:23:31;20.60;99.90
59556;DHT22;45374;52.746;6.304;2023-05-28T10:25:56;20.60;99.90
59556;DHT22;45374;52.746;6.304;2023-05-28T10:28:22;20.60;99.90
59556;DHT22;45374;52.746;6.304;2023-05-28T10:31:01;20.60;99.90
59556;DHT22;45374;52.746;6.304;2023-05-28T10:33:28;20.70;99.90
59556;DHT22;45374;52.746;6.304;2023-05-28T10:35:56;20.70;99.90
59556;DHT22;45374;52.746;6.304;2023-05-28T10:38:22;20.80;99.90
59556;DHT22;45374;52.746;6.304;2023-05-28T10:40:48;20.80;99.90
59556;DHT22;45374;52.746;6.304;2023-05-28T10:43:39;20.90;99.90
59556;DHT22;45374;52.746;6.304;2023-05-28T10:46:10;20.90;99.90
59556;DHT22;45374;52.746;6.304;2023-05-28T10:49:04;21.00;99.90
59556;DHT22;45374;52.746;6.304;2023-05-28T10:51:59;21.00;99.90
59556;DHT22;45374;52.746;6.304;2023-05-28T10:57:18;20.80;97.40
59556;DHT22;45374;52.746;6.304;2023-05-28T10:59:59;20.70;98.80
59556;DHT22;45374;52.746;6.304;2023-05-28T11:02:28;20.70;95.30
59556;DHT22;45374;52.746;6.304;2023-05-28T11:04:58;20.70;96.60
59556;DHT22;45374;52.746;6.304;2023-05-28T11:07:33;20.70;98.60
59556;DHT22;45374;52.746;6.304;2023-05-28T11:10:02;20.70;97.50
59556;DHT22;45374;52.746;6.304;2023-05-28T11:12:30;20.80;97.00
59556;DHT22;45374;52.746;6.304;2023-05-28T11:14:56;20.80;96.10
59556;DHT22;45374;52.746;6.304;2023-05-28T11:17:22;20.70;95.10
59556;DHT22;45374;52.746;6.304;2023-05-28T11:19:50;20.70;97.10
59556;DHT22;45374;52.746;6.304;2023-05-28T11:22:18;20.80;95.60
59556;DHT22;45374;52.746;6.304;2023-05-28T11:25:07;20.80;94.50
59556;DHT22;45374;52.746;6.304;2023-05-28T11:27:34;20.80;95.30
59556;DHT22;45374;52.746;6.304;2023-05-28T11:30:03;20.90;94.80
59556;DHT22;45374;52.746;6.304;2023-05-28T11:32:32;20.90;92.20
59556;DHT22;45374;52.746;6.304;2023-05-28T11:34:59;20.80;91.30
59556;DHT22;45374;52.746;6.304;2023-05-28T11:37:33;20.80;91.80
59556;DHT22;45374;52.746;6.304;2023-05-28T11:40:00;20.80;91.10
59556;DHT22;45374;52.746;6.304;2023-05-28T11:42:29;20.80;91.80
59556;DHT22;45374;52.746;6.304;2023-05-28T11:44:55;20.90;92.40
59556;DHT22;45374;52.746;6.304;2023-05-28T11:47:22;20.90;91.70
59556;DHT22;45374;52.746;6.304;2023-05-28T11:49:48;21.00;89.70
59556;DHT22;45374;52.746;6.304;2023-05-28T11:52:15;21.00;88.50
59556;DHT22;45374;52.746;6.304;2023-05-28T11:54:43;20.90;89.10
59556;DHT22;45374;52.746;6.304;2023-05-28T11:57:10;21.00;89.60
59556;DHT22;45374;52.746;6.304;2023-05-28T11:59:36;21.00;90.60
59556;DHT22;45374;52.746;6.304;2023-05-28T12:02:13;21.10;90.60
59556;DHT22;45374;52.746;6.304;2023-05-28T12:04:39;21.10;92.00
59556;DHT22;45374;52.746;6.304;2023-05-28T12:07:05;21.20;92.10
59556;DHT22;45374;52.746;6.304;2023-05-28T12:09:31;21.30;92.20
59556;DHT22;45374;52.746;6.304;2023-05-28T12:12:02;21.40;91.50
59556;DHT22;45374;52.746;6.304;2023-05-28T12:14:30;21.40;90.30
59556;DHT22;45374;52.746;6.304;2023-05-28T12:17:07;21.50;87.20
59556;DHT22;45374;52.746;6.304;2023-05-28T12:19:35;21.40;84.70
59556;DHT22;45374;52.746;6.304;2023-05-28T12:22:02;21.40;86.90
59556;DHT22;45374;52.746;6.304;2023-05-28T12:24:28;21.40;87.20
59556;DHT22;45374;52.746;6.304;2023-05-28T12:26:54;21.50;88.20
59556;DHT22;45374;52.746;6.304;2023-05-28T12:29:20;21.50;81.60
59556;DHT22;45374;52.746;6.304;2023-05-28T12:31:45;21.50;82.80
59556;DHT22;45374;52.746;6.304;2023-05-28T12:34:11;21.40;81.90
59556;DHT22;45374;52.746;6.304;2023-05-28T12:36:37;21.50;77.80
59556;DHT22;45374;52.746;6.304;2023-05-28T12:39:03;21.50;79.60
59556;DHT22;45374;52.746;6.304;2023-05-28T12:41:30;21.40;78.80
59556;DHT22;45374;52.746;6.304;2023-05-28T12:43:56;21.50;80.50
59556;DHT22;45374;52.746;6.304;2023-05-28T12:46:21;21.40;80.00
59556;DHT22;45374;52.746;6.304;2023-05-28T12:48:47;21.50;79.80
59556;DHT22;45374;52.746;6.304;2023-05-28T12:51:13;21.60;81.00
59556;DHT22;45374;52.746;6.304;2023-05-28T12:53:39;21.60;80.20
59556;DHT22;45374;52.746;6.304;2023-05-28T12:56:05;21.60;80.70
59556;DHT22;45374;52.746;6.304;2023-05-28T12:58:30;21.70;78.20
59556;DHT22;45374;52.746;6.304;2023-05-28T13:00:56;21.70;77.40
59556;DHT22;45374;52.746;6.304;2023-05-28T13:03:21;21.70;78.10
59556;DHT22;45374;52.746;6.304;2023-05-28T13:05:47;21.70;79.00
59556;DHT22;45374;52.746;6.304;2023-05-28T13:08:12;21.80;74.60
59556;DHT22;45374;52.746;6.304;2023-05-28T13:10:38;21.80;76.30
59556;DHT22;45374;52.746;6.304;2023-05-28T13:13:03;21.80;79.00
59556;DHT22;45374;52.746;6.304;2023-05-28T13:15:29;21.80;76.30
59556;DHT22;45374;52.746;6.304;2023-05-28T13:17:55;21.80;76.60
59556;DHT22;45374;52.746;6.304;2023-05-28T13:20:22;21.80;79.20
59556;DHT22;45374;52.746;6.304;2023-05-28T13:22:48;21.80;79.10
59556;DHT22;45374;52.746;6.304;2023-05-28T13:25:13;21.80;74.90
59556;DHT22;45374;52.746;6.304;2023-05-28T13:27:39;21.80;72.80
59556;DHT22;45374;52.746;6.304;2023-05-28T13:30:06;21.80;75.30
59556;DHT22;45374;52.746;6.304;2023-05-28T13:32:32;21.70;76.80
59556;DHT22;45374;52.746;6.304;2023-05-28T13:34:57;21.70;79.40
59556;DHT22;45374;52.746;6.304;2023-05-28T13:37:23;21.80;78.60
59556;DHT22;45374;52.746;6.304;2023-05-28T13:39:49;21.80;81.70
59556;DHT22;45374;52.746;6.304;2023-05-28T13:42:14;21.90;83.10
59556;DHT22;45374;52.746;6.304;2023-05-28T13:44:47;21.90;83.20
59556;DHT22;45374;52.746;6.304;2023-05-28T13:47:13;21.90;82.00
59556;DHT22;45374;52.746;6.304;2023-05-28T13:49:39;21.90;80.00
59556;DHT22;45374;52.746;6.304;2023-05-28T13:52:04;21.80;82.20
59556;DHT22;45374;52.746;6.304;2023-05-28T13:54:30;21.80;85.20
59556;DHT22;45374;52.746;6.304;2023-05-28T13:56:56;21.90;86.30
59556;DHT22;45374;52.746;6.304;2023-05-28T13:59:21;21.80;89.10
59556;DHT22;45374;52.746;6.304;2023-05-28T14:01:47;21.90;89.60
59556;DHT22;45374;52.746;6.304;2023-05-28T14:04:12;22.00;90.80
59556;DHT22;45374;52.746;6.304;2023-05-28T14:06:38;22.00;89.70
59556;DHT22;45374;52.746;6.304;2023-05-28T14:09:04;22.00;90.80
59556;DHT22;45374;52.746;6.304;2023-05-28T14:11:31;21.90;91.10
59556;DHT22;45374;52.746;6.304;2023-05-28T14:13:56;21.90;91.60
59556;DHT22;45374;52.746;6.304;2023-05-28T14:16:22;21.90;92.40
59556;DHT22;45374;52.746;6.304;2023-05-28T14:18:47;21.90;91.80
59556;DHT22;45374;52.746;6.304;2023-05-28T14:21:13;21.80;92.30
59556;DHT22;45374;52.746;6.304;2023-05-28T14:23:38;21.80;92.80
59556;DHT22;45374;52.746;6.304;2023-05-28T14:26:04;21.70;95.00
59556;DHT22;45374;52.746;6.304;2023-05-28T14:28:29;21.60;96.10
59556;DHT22;45374;52.746;6.304;2023-05-28T14:30:55;21.70;96.10
59556;DHT22;45374;52.746;6.304;2023-05-28T14:33:21;21.60;96.30
59556;DHT22;45374;52.746;6.304;2023-05-28T14:35:47;21.50;97.10
59556;DHT22;45374;52.746;6.304;2023-05-28T14:38:12;21.50;97.00
59556;DHT22;45374;52.746;6.304;2023-05-28T14:40:38;21.50;97.30
59556;DHT22;45374;52.746;6.304;2023-05-28T14:43:03;21.40;97.20
59556;DHT22;45374;52.746;6.304;2023-05-28T14:45:29;21.50;98.40
59556;DHT22;45374;52.746;6.304;2023-05-28T14:47:54;21.50;98.60
59556;DHT22;45374;52.746;6.304;2023-05-28T14:50:20;21.60;98.50
59556;DHT22;45374;52.746;6.304;2023-05-28T14:52:46;21.60;98.70
59556;DHT22;45374;52.746;6.304;2023-05-28T14:55:11;21.60;98.10
59556;DHT22;45374;52.746;6.304;2023-05-28T14:57:37;21.60;97.70
59556;DHT22;45374;52.746;6.304;2023-05-28T15:00:05;21.50;97.60
59556;DHT22;45374;52.746;6.304;2023-05-28T15:02:33;21.40;97.80
59556;DHT22;45374;52.746;6.304;2023-05-28T15:04:59;21.30;98.80
59556;DHT22;45374;52.746;6.304;2023-05-28T15:07:25;21.30;99.40
59556;DHT22;45374;52.746;6.304;2023-05-28T15:09:50;21.20;99.90
59556;DHT22;45374;52.746;6.304;2023-05-28T15:12:16;21.20;99.40
59556;DHT22;45374;52.746;6.304;2023-05-28T15:14:41;21.20;98.90
59556;DHT22;45374;52.746;6.304;2023-05-28T15:17:07;21.30;98.50
59556;DHT22;45374;52.746;6.304;2023-05-28T15:19:33;21.10;98.20
59556;DHT22;45374;52.746;6.304;2023-05-28T15:21:58;21.10;98.10
59556;DHT22;45374;52.746;6.304;2023-05-28T15:24:24;21.00;98.40
59556;DHT22;45374;52.746;6.304;2023-05-28T15:26:50;21.00;99.40
59556;DHT22;45374;52.746;6.304;2023-05-28T15:29:16;21.10;99.20